createdAt,value
2022-09-18T00:01:31.149Z,9.30
2022-09-18T00:04:01.060Z,9.40
2022-09-18T00:06:32.059Z,9.00
2022-09-18T00:09:02.239Z,8.90
2022-09-18T00:11:34.979Z,9.20
2022-09-18T00:14:03.106Z,9.50
2022-09-18T00:16:30.938Z,9.40
2022-09-18T00:18:59.095Z,8.90
2022-09-18T00:21:28.680Z,9.00
2022-09-18T00:23:59.948Z,9.00
2022-09-18T00:26:28.629Z,9.00
2022-09-18T00:28:57.044Z,9.20
2022-09-18T00:31:27.746Z,8.80
2022-09-18T00:33:55.698Z,9.00
2022-09-18T00:36:23.803Z,8.70
2022-09-18T00:38:51.683Z,8.90
2022-09-18T00:41:23.916Z,9.10
2022-09-18T00:43:52.701Z,9.40
2022-09-18T00:46:26.926Z,9.10
2022-09-18T00:49:04.020Z,9.30
2022-09-18T00:51:33.634Z,9.10
2022-09-18T00:54:07.547Z,9.20
2022-09-18T00:56:37.015Z,9.30
2022-09-18T00:59:05.324Z,9.00
2022-09-18T01:01:33.209Z,8.90
2022-09-18T01:04:01.084Z,9.10
2022-09-18T01:06:33.748Z,9.20
2022-09-18T01:09:11.669Z,9.20
2022-09-18T01:11:47.829Z,9.20
2022-09-18T01:14:29.444Z,9.30
2022-09-18T01:17:03.865Z,9.30
2022-09-18T01:20:17.417Z,9.20
2022-09-18T01:22:59.272Z,9.20
2022-09-18T01:25:38.243Z,9.30
2022-09-18T01:28:17.866Z,9.30
2022-09-18T01:30:48.861Z,9.40
2022-09-18T01:33:21.786Z,9.30
2022-09-18T01:35:53.593Z,9.10
2022-09-18T01:38:27.617Z,9.30
2022-09-18T01:40:59.461Z,9.30
2022-09-18T01:43:30.866Z,9.30
2022-09-18T01:46:04.263Z,9.40
2022-09-18T01:48:35.410Z,9.30
2022-09-18T01:51:08.560Z,9.20
2022-09-18T01:53:41.857Z,9.30
2022-09-18T01:56:14.576Z,9.40
2022-09-18T01:58:44.574Z,9.30
2022-09-18T02:01:16.227Z,9.30
2022-09-18T02:03:48.827Z,9.30
2022-09-18T02:06:21.372Z,9.30
2022-09-18T02:08:52.145Z,9.20
2022-09-18T02:11:21.892Z,9.30
2022-09-18T02:13:55.934Z,9.30
2022-09-18T02:16:30.337Z,9.30
2022-09-18T02:19:00.176Z,9.20
2022-09-18T02:21:30.068Z,9.10
2022-09-18T02:24:01.829Z,9.10
2022-09-18T02:26:30.109Z,9.20
2022-09-18T02:29:00.194Z,9.20
2022-09-18T02:31:28.533Z,9.10
2022-09-18T02:33:56.348Z,9.20
2022-09-18T02:36:44.277Z,9.20
2022-09-18T02:39:24.590Z,9.00
2022-09-18T02:42:00.623Z,9.10
2022-09-18T02:44:38.233Z,9.10
2022-09-18T02:47:13.618Z,9.10
2022-09-18T02:49:53.340Z,9.20
2022-09-18T02:52:27.883Z,9.10
2022-09-18T02:54:58.775Z,9.20
2022-09-18T02:57:33.642Z,9.10
2022-09-18T03:00:04.519Z,9.10
2022-09-18T03:02:32.346Z,9.10
2022-09-18T03:05:00.128Z,9.10
2022-09-18T03:07:27.985Z,9.10
2022-09-18T03:09:55.818Z,9.20
2022-09-18T03:12:23.570Z,9.20
2022-09-18T03:14:51.314Z,9.10
2022-09-18T03:17:20.722Z,9.00
2022-09-18T03:19:48.488Z,9.10
2022-09-18T03:22:16.330Z,9.20
2022-09-18T03:24:44.274Z,9.10
2022-09-18T03:27:12.040Z,9.10
2022-09-18T03:29:39.765Z,9.20
2022-09-18T03:32:07.591Z,9.10
2022-09-18T03:34:36.709Z,9.10
2022-09-18T03:37:04.550Z,9.10
2022-09-18T03:39:32.312Z,9.10
2022-09-18T03:42:00.095Z,9.10
2022-09-18T03:44:27.863Z,9.20
2022-09-18T03:46:55.695Z,9.20
2022-09-18T03:49:23.506Z,9.20
2022-09-18T03:51:52.622Z,9.20
2022-09-18T03:54:20.363Z,9.10
2022-09-18T03:56:48.968Z,9.20
2022-09-18T03:59:16.714Z,9.10
2022-09-18T04:01:44.492Z,9.00
2022-09-18T04:04:13.161Z,9.10
2022-09-18T04:06:40.902Z,9.20
2022-09-18T04:09:10.598Z,9.20
2022-09-18T04:11:38.371Z,9.10
2022-09-18T04:14:06.168Z,9.20
2022-09-18T04:16:34.342Z,9.20
2022-09-18T04:19:02.160Z,9.30
2022-09-18T04:21:30.211Z,9.20
2022-09-18T04:24:00.598Z,9.20
2022-09-18T04:26:29.680Z,9.10
2022-09-18T04:28:57.478Z,9.20
2022-09-18T04:31:25.366Z,9.00
2022-09-18T04:33:53.485Z,9.00
2022-09-18T04:36:21.250Z,9.10
2022-09-18T04:38:49.054Z,9.10
2022-09-18T04:41:16.784Z,8.90
2022-09-18T04:43:45.974Z,8.90
2022-09-18T04:46:13.931Z,9.10
2022-09-18T04:48:41.759Z,9.00
2022-09-18T04:51:09.556Z,9.00
2022-09-18T04:53:37.948Z,9.00
2022-09-18T04:56:05.909Z,9.00
2022-09-18T04:58:33.680Z,9.10
2022-09-18T05:01:02.943Z,9.00
2022-09-18T05:03:30.731Z,9.00
2022-09-18T05:05:58.502Z,9.10
2022-09-18T05:08:26.280Z,9.00
2022-09-18T05:10:54.048Z,8.90
2022-09-18T05:13:21.896Z,9.20
2022-09-18T05:15:49.778Z,9.00
2022-09-18T05:18:18.965Z,8.90
2022-09-18T05:20:46.708Z,9.10
2022-09-18T05:23:15.021Z,9.10
2022-09-18T05:25:43.345Z,9.00
2022-09-18T05:28:13.187Z,9.00
2022-09-18T05:30:41.051Z,9.10
2022-09-18T05:33:11.736Z,9.00
2022-09-18T05:35:42.100Z,9.20
2022-09-18T05:38:11.442Z,9.30
2022-09-18T05:40:39.560Z,9.10
2022-09-18T05:43:07.646Z,9.20
2022-09-18T05:45:35.658Z,9.20
2022-09-18T05:48:05.643Z,9.20
2022-09-18T05:50:34.341Z,9.20
2022-09-18T05:53:05.090Z,9.20
2022-09-18T05:55:33.440Z,9.20
2022-09-18T05:58:03.827Z,9.20
2022-09-18T06:00:33.786Z,9.20
2022-09-18T06:03:03.807Z,9.20
2022-09-18T06:05:35.330Z,9.30
2022-09-18T06:08:06.453Z,9.30
2022-09-18T06:10:37.146Z,9.30
2022-09-18T06:13:06.576Z,9.30
2022-09-18T06:15:35.297Z,9.30
2022-09-18T06:18:03.381Z,9.20
2022-09-18T06:20:31.266Z,9.20
2022-09-18T06:23:01.320Z,9.00
2022-09-18T06:25:30.936Z,9.30
2022-09-18T06:28:00.083Z,9.20
2022-09-18T06:30:28.238Z,9.30
2022-09-18T06:32:56.833Z,9.40
2022-09-18T06:35:24.770Z,9.30
2022-09-18T06:37:52.492Z,9.30
2022-09-18T06:40:20.286Z,9.20
2022-09-18T06:42:49.398Z,9.40
2022-09-18T06:45:17.252Z,9.40
2022-09-18T06:47:44.994Z,9.30
2022-09-18T06:50:12.705Z,9.40
2022-09-18T06:52:40.429Z,9.20
2022-09-18T06:55:08.911Z,9.20
2022-09-18T06:57:36.681Z,9.30
2022-09-18T07:00:07.025Z,9.30
2022-09-18T07:02:34.802Z,9.40
2022-09-18T07:05:02.644Z,9.30
2022-09-18T07:07:30.412Z,9.40
2022-09-18T07:09:58.261Z,9.40
2022-09-18T07:12:28.426Z,9.50
2022-09-18T07:14:56.410Z,9.40
2022-09-18T07:17:26.505Z,9.50
2022-09-18T07:19:54.614Z,9.50
2022-09-18T07:22:22.362Z,9.40
2022-09-18T07:24:50.119Z,9.40
2022-09-18T07:27:17.883Z,9.50
2022-09-18T07:29:45.611Z,9.40
2022-09-18T07:32:13.537Z,9.50
2022-09-18T07:34:42.702Z,9.40
2022-09-18T07:37:10.466Z,9.40
2022-09-18T07:39:38.262Z,9.40
2022-09-18T07:42:08.971Z,9.50
2022-09-18T07:44:37.106Z,9.50
2022-09-18T07:47:05.412Z,9.50
2022-09-18T07:49:33.777Z,9.50
2022-09-18T07:52:03.109Z,9.50
2022-09-18T07:54:32.146Z,9.40
2022-09-18T07:56:59.876Z,9.50
2022-09-18T07:59:27.686Z,9.50
2022-09-18T08:01:55.882Z,9.50
2022-09-18T08:04:23.988Z,9.60
2022-09-18T08:06:55.025Z,9.60
2022-09-18T08:09:24.454Z,9.70
2022-09-18T08:11:54.083Z,9.50
2022-09-18T08:14:26.618Z,9.60
2022-09-18T08:16:56.858Z,9.50
2022-09-18T08:19:24.734Z,9.70
2022-09-18T08:21:52.507Z,9.60
2022-09-18T08:24:20.355Z,9.60
2022-09-18T08:26:49.419Z,9.70
2022-09-18T08:29:19.633Z,9.70
2022-09-18T08:31:48.006Z,9.70
2022-09-18T08:34:15.911Z,9.80
2022-09-18T08:36:43.720Z,9.80
2022-09-18T08:39:11.513Z,9.80
2022-09-18T08:41:49.090Z,9.70
2022-09-18T08:44:24.179Z,9.80
2022-09-18T08:46:57.636Z,9.80
2022-09-18T08:49:30.609Z,9.80
2022-09-18T08:52:04.697Z,9.80
2022-09-18T08:54:45.188Z,9.70
2022-09-18T08:57:18.940Z,9.90
2022-09-18T08:59:52.793Z,9.80
2022-09-18T09:02:39.648Z,9.90
2022-09-18T09:05:11.437Z,10.00
2022-09-18T09:08:03.229Z,10.00
2022-09-18T09:10:59.407Z,10.00
2022-09-18T09:13:55.357Z,10.10
2022-09-18T09:16:33.345Z,10.00
2022-09-18T09:19:02.931Z,10.10
2022-09-18T09:21:52.584Z,10.10
2022-09-18T09:24:31.494Z,10.10
2022-09-18T09:27:03.189Z,10.20
2022-09-18T09:29:37.957Z,10.20
2022-09-18T09:32:11.809Z,10.20
2022-09-18T09:34:45.224Z,10.20
2022-09-18T09:37:17.844Z,10.20
2022-09-18T09:39:50.523Z,10.20
2022-09-18T09:42:22.443Z,10.20
2022-09-18T09:44:55.499Z,10.20
2022-09-18T09:47:31.124Z,10.20
2022-09-18T09:50:10.757Z,10.30
2022-09-18T09:52:41.121Z,10.30
2022-09-18T09:55:22.169Z,10.30
2022-09-18T09:58:02.361Z,10.40
2022-09-18T10:00:34.954Z,10.40
2022-09-18T10:03:27.116Z,10.50
2022-09-18T10:06:01.479Z,10.50
2022-09-18T10:08:35.501Z,10.50
2022-09-18T10:11:08.582Z,10.50
2022-09-18T10:13:41.290Z,10.50
2022-09-18T10:16:16.816Z,10.60
2022-09-18T10:18:47.841Z,10.60
2022-09-18T10:21:18.031Z,10.60
2022-09-18T10:23:50.566Z,10.50
2022-09-18T10:26:23.573Z,10.60
2022-09-18T10:28:51.522Z,10.60
2022-09-18T10:31:19.793Z,10.60
2022-09-18T10:33:51.267Z,10.80
2022-09-18T10:36:31.293Z,10.90
2022-09-18T10:39:00.790Z,10.90
2022-09-18T10:41:31.518Z,10.90
2022-09-18T10:44:07.027Z,10.90
2022-09-18T10:46:37.284Z,10.70
2022-09-18T10:49:26.562Z,10.60
2022-09-18T10:52:21.394Z,10.70
2022-09-18T10:55:09.132Z,10.70
2022-09-18T10:57:38.465Z,10.60
2022-09-18T11:00:39.784Z,10.70
2022-09-18T11:03:24.442Z,10.70
2022-09-18T11:05:58.179Z,10.70
2022-09-18T11:08:28.161Z,10.60
2022-09-18T11:11:03.228Z,10.60
2022-09-18T11:13:31.542Z,10.70
2022-09-18T11:16:02.895Z,10.80
2022-09-18T11:18:33.086Z,10.80
2022-09-18T11:21:06.628Z,10.90
2022-09-18T11:23:35.720Z,10.80
2022-09-18T11:26:19.230Z,10.80
2022-09-18T11:29:01.541Z,10.90
2022-09-18T11:31:40.457Z,10.90
2022-09-18T11:34:20.913Z,11.00
2022-09-18T11:36:52.336Z,11.00
2022-09-18T11:39:25.258Z,11.10
2022-09-18T11:41:54.819Z,11.00
2022-09-18T11:44:27.505Z,11.00
2022-09-18T11:47:35.502Z,11.00
2022-09-18T11:50:11.854Z,10.90
2022-09-18T11:52:44.199Z,10.80
2022-09-18T11:55:31.955Z,10.90
2022-09-18T11:58:03.059Z,10.90
2022-09-18T12:00:36.693Z,11.00
2022-09-18T12:03:15.778Z,11.10
2022-09-18T12:05:53.725Z,11.30
2022-09-18T12:08:33.093Z,11.50
2022-09-18T12:11:14.032Z,11.60
2022-09-18T12:13:56.521Z,11.50
2022-09-18T12:16:32.011Z,11.40
2022-09-18T12:19:04.454Z,11.40
2022-09-18T12:21:42.584Z,11.40
2022-09-18T12:24:17.401Z,11.30
2022-09-18T12:26:54.137Z,11.20
2022-09-18T12:29:35.360Z,11.20
2022-09-18T12:32:14.194Z,11.10
2022-09-18T12:34:49.565Z,11.10
2022-09-18T12:37:28.417Z,11.10
2022-09-18T12:40:15.797Z,11.00
2022-09-18T12:42:53.537Z,11.00
2022-09-18T12:45:52.812Z,11.20
2022-09-18T12:48:32.433Z,11.30
2022-09-18T12:51:19.456Z,11.40
2022-09-18T12:53:57.052Z,11.30
2022-09-18T12:56:39.473Z,11.30
2022-09-18T12:59:41.467Z,11.20
2022-09-18T13:02:23.519Z,11.30
2022-09-18T13:04:55.793Z,11.20
2022-09-18T13:07:28.596Z,11.30
2022-09-18T13:10:02.576Z,11.30
2022-09-18T13:12:37.665Z,11.30
2022-09-18T13:15:12.715Z,11.40
2022-09-18T13:17:46.731Z,11.50
2022-09-18T13:20:20.901Z,11.60
2022-09-18T13:22:53.321Z,11.60
2022-09-18T13:25:26.972Z,11.60
2022-09-18T13:27:58.092Z,11.70
2022-09-18T13:30:28.861Z,11.80
2022-09-18T13:32:57.750Z,11.80
2022-09-18T13:35:28.841Z,11.80
2022-09-18T13:38:13.211Z,11.80
2022-09-18T13:40:44.406Z,11.90
2022-09-18T13:43:25.272Z,12.00
2022-09-18T13:45:53.497Z,12.00
2022-09-18T13:48:25.296Z,12.00
2022-09-18T13:50:56.205Z,12.00
2022-09-18T13:53:39.285Z,12.00
2022-09-18T13:56:08.355Z,12.10
2022-09-18T13:59:01.653Z,12.10
2022-09-18T14:02:03.301Z,12.20
2022-09-18T14:04:57.774Z,12.30
2022-09-18T14:07:52.241Z,12.30
2022-09-18T14:10:33.473Z,12.30
2022-09-18T14:13:27.889Z,12.20
2022-09-18T14:16:01.152Z,12.20
2022-09-18T14:18:31.396Z,12.10
2022-09-18T14:21:14.936Z,12.10
2022-09-18T14:24:13.178Z,12.10
2022-09-18T14:27:19.129Z,12.10
2022-09-18T14:29:49.670Z,12.10
2022-09-18T14:32:20.149Z,12.10
2022-09-18T14:34:48.512Z,12.10
2022-09-18T14:37:27.793Z,12.10
2022-09-18T14:39:58.439Z,12.10
2022-09-18T14:42:33.146Z,12.10
2022-09-18T14:45:26.675Z,12.10
2022-09-18T14:47:56.297Z,12.10
2022-09-18T14:50:30.725Z,12.00
2022-09-18T14:53:00.500Z,12.00
2022-09-18T14:55:35.239Z,12.10
2022-09-18T14:58:06.966Z,12.00
2022-09-18T15:00:37.527Z,12.00
2022-09-18T15:03:09.828Z,12.00
2022-09-18T15:05:37.965Z,12.00
2022-09-18T15:08:13.540Z,12.00
2022-09-18T15:10:44.727Z,11.90
2022-09-18T15:13:15.847Z,11.90
2022-09-18T15:15:45.685Z,11.90
2022-09-18T15:18:24.445Z,11.90
2022-09-18T15:20:53.679Z,12.00
2022-09-18T15:23:25.857Z,11.90
2022-09-18T15:25:55.752Z,11.90
2022-09-18T15:28:26.404Z,11.90
2022-09-18T15:30:58.113Z,11.90
2022-09-18T15:33:28.324Z,11.80
2022-09-18T15:35:57.355Z,11.90
2022-09-18T15:38:27.588Z,11.90
2022-09-18T15:40:56.008Z,11.90
2022-09-18T15:43:43.336Z,11.80
2022-09-18T15:46:12.599Z,11.60
2022-09-18T15:48:45.461Z,11.70
2022-09-18T15:51:16.434Z,11.70
2022-09-18T15:54:07.483Z,11.70
2022-09-18T15:56:36.425Z,11.60
2022-09-18T15:59:07.326Z,11.60
2022-09-18T16:01:39.633Z,11.70
2022-09-18T16:04:18.001Z,11.70
2022-09-18T16:06:53.496Z,11.70
2022-09-18T16:09:36.972Z,11.70
2022-09-18T16:12:27.060Z,11.60
2022-09-18T16:15:15.892Z,11.60
2022-09-18T16:17:55.019Z,11.60
2022-09-18T16:20:36.411Z,11.60
2022-09-18T16:23:15.130Z,11.70
2022-09-18T16:25:43.696Z,11.60
2022-09-18T16:28:26.943Z,11.60
2022-09-18T16:30:55.263Z,11.60
2022-09-18T16:33:24.374Z,11.70
2022-09-18T16:35:57.616Z,11.70
2022-09-18T16:38:25.340Z,11.70
2022-09-18T16:40:53.176Z,11.70
2022-09-18T16:43:21.480Z,11.70
2022-09-18T16:45:49.849Z,11.60
2022-09-18T16:48:18.659Z,11.60
2022-09-18T16:50:47.747Z,11.70
2022-09-18T16:53:17.498Z,11.60
2022-09-18T16:55:48.599Z,11.60
2022-09-18T16:58:19.007Z,11.60
2022-09-18T17:00:46.943Z,11.60
2022-09-18T17:03:15.105Z,11.50
2022-09-18T17:05:42.877Z,11.60
2022-09-18T17:08:10.669Z,11.60
2022-09-18T17:10:44.374Z,11.60
2022-09-18T17:13:12.951Z,11.50
2022-09-18T17:15:40.825Z,11.50
2022-09-18T17:18:08.845Z,11.50
2022-09-18T17:20:36.608Z,11.50
2022-09-18T17:23:04.337Z,11.50
2022-09-18T17:25:32.056Z,11.50
2022-09-18T17:28:01.158Z,11.50
2022-09-18T17:30:28.953Z,11.50
2022-09-18T17:32:56.677Z,11.40
2022-09-18T17:35:25.143Z,11.40
2022-09-18T17:37:53.145Z,11.40
2022-09-18T17:40:20.888Z,11.30
2022-09-18T17:42:48.698Z,11.40
2022-09-18T17:45:17.847Z,11.40
2022-09-18T17:47:45.644Z,11.40
2022-09-18T17:50:13.506Z,11.40
2022-09-18T17:52:41.634Z,11.30
2022-09-18T17:55:10.685Z,11.30
2022-09-18T17:57:39.248Z,11.30
2022-09-18T18:00:09.160Z,11.40
2022-09-18T18:02:38.295Z,11.30
2022-09-18T18:05:06.863Z,11.30
2022-09-18T18:07:34.620Z,11.40
2022-09-18T18:10:02.460Z,11.30
2022-09-18T18:12:30.168Z,11.30
2022-09-18T18:14:57.917Z,11.30
2022-09-18T18:17:25.733Z,11.40
2022-09-18T18:19:54.911Z,11.30
2022-09-18T18:22:22.676Z,11.30
2022-09-18T18:24:50.552Z,11.20
2022-09-18T18:27:21.415Z,11.20
2022-09-18T18:29:50.540Z,11.20
2022-09-18T18:32:18.273Z,11.30
2022-09-18T18:34:46.047Z,11.20
2022-09-18T18:37:15.189Z,11.20
2022-09-18T18:39:42.905Z,11.20
2022-09-18T18:42:10.634Z,11.20
2022-09-18T18:44:40.002Z,11.20
2022-09-18T18:47:07.822Z,11.20
2022-09-18T18:49:35.641Z,11.10
2022-09-18T18:52:04.918Z,11.10
2022-09-18T18:54:33.985Z,11.20
2022-09-18T18:57:01.709Z,11.10
2022-09-18T18:59:29.713Z,11.20
2022-09-18T19:01:57.829Z,11.20
2022-09-18T19:04:26.638Z,11.20
2022-09-18T19:06:54.497Z,11.20
2022-09-18T19:09:24.239Z,11.20
2022-09-18T19:11:54.060Z,11.20
2022-09-18T19:14:24.091Z,11.20
2022-09-18T19:16:53.061Z,11.10
2022-09-18T19:19:23.306Z,11.10
2022-09-18T19:21:51.142Z,11.10
2022-09-18T19:24:19.381Z,11.20
2022-09-18T19:26:48.179Z,11.20
2022-09-18T19:29:18.777Z,11.20
2022-09-18T19:31:47.531Z,11.10
2022-09-18T19:34:17.588Z,11.10
2022-09-18T19:36:46.971Z,11.10
2022-09-18T19:39:15.252Z,11.10
2022-09-18T19:41:48.631Z,11.10
2022-09-18T19:44:23.846Z,11.10
2022-09-18T19:46:53.292Z,11.10
2022-09-18T19:49:23.620Z,11.10
2022-09-18T19:51:51.396Z,11.10
2022-09-18T19:54:19.496Z,11.10
2022-09-18T19:56:49.413Z,10.90
2022-09-18T19:59:18.504Z,11.00
2022-09-18T20:01:46.610Z,11.00
2022-09-18T20:04:14.381Z,11.10
2022-09-18T20:06:42.358Z,11.00
2022-09-18T20:09:10.658Z,11.00
2022-09-18T20:11:38.434Z,11.00
2022-09-18T20:14:06.188Z,11.00
2022-09-18T20:16:35.374Z,11.00
2022-09-18T20:19:03.173Z,11.00
2022-09-18T20:21:30.956Z,11.00
2022-09-18T20:23:59.848Z,11.00
2022-09-18T20:26:28.731Z,10.90
2022-09-18T20:28:56.547Z,10.90
2022-09-18T20:31:24.682Z,11.00
2022-09-18T20:33:56.573Z,11.00
2022-09-18T20:36:25.959Z,11.00
2022-09-18T20:39:00.647Z,11.00
2022-09-18T20:41:29.807Z,10.90
2022-09-18T20:44:01.070Z,11.00
2022-09-18T20:46:28.987Z,11.00
2022-09-18T20:48:59.981Z,10.90
2022-09-18T20:51:29.547Z,10.90
2022-09-18T20:53:58.686Z,10.90
2022-09-18T20:56:30.583Z,10.90
2022-09-18T20:58:58.543Z,10.90
2022-09-18T21:01:27.877Z,10.90
2022-09-18T21:03:58.557Z,10.90
2022-09-18T21:06:31.485Z,10.90
2022-09-18T21:09:00.334Z,10.80
2022-09-18T21:11:30.267Z,10.90
2022-09-18T21:14:00.716Z,10.90
2022-09-18T21:16:30.344Z,10.80
2022-09-18T21:19:01.736Z,10.90
2022-09-18T21:21:31.170Z,10.90
2022-09-18T21:24:01.222Z,10.80
2022-09-18T21:26:31.494Z,10.80
2022-09-18T21:29:01.467Z,10.80
2022-09-18T21:31:30.377Z,10.80
2022-09-18T21:34:00.222Z,10.90
2022-09-18T21:36:28.448Z,10.80
2022-09-18T21:38:56.389Z,10.90
2022-09-18T21:41:26.024Z,10.80
2022-09-18T21:43:57.461Z,10.70
2022-09-18T21:46:25.518Z,10.80
2022-09-18T21:48:54.484Z,10.80
2022-09-18T21:51:23.589Z,10.80
2022-09-18T21:53:51.341Z,10.80
2022-09-18T21:56:21.049Z,10.80
2022-09-18T21:58:49.824Z,10.80
2022-09-18T22:01:19.301Z,10.80
2022-09-18T22:03:52.164Z,10.80
2022-09-18T22:06:20.935Z,10.80
2022-09-18T22:08:54.345Z,10.80
2022-09-18T22:11:24.739Z,10.70
2022-09-18T22:13:53.544Z,10.60
2022-09-18T22:16:23.174Z,10.70
2022-09-18T22:18:51.023Z,10.70
2022-09-18T22:21:21.488Z,10.60
2022-09-18T22:23:52.881Z,10.70
2022-09-18T22:26:23.285Z,10.60
2022-09-18T22:28:53.313Z,10.70
2022-09-18T22:31:22.222Z,10.60
2022-09-18T22:33:54.943Z,10.70
2022-09-18T22:36:22.712Z,10.60
2022-09-18T22:38:52.281Z,10.50
2022-09-18T22:41:20.434Z,10.60
2022-09-18T22:43:48.178Z,10.50
2022-09-18T22:46:17.475Z,10.50
2022-09-18T22:48:45.344Z,10.60
2022-09-18T22:51:14.836Z,10.50
2022-09-18T22:53:47.665Z,10.50
2022-09-18T22:56:17.430Z,10.50
2022-09-18T23:01:23.138Z,10.50
2022-09-18T23:03:53.657Z,10.50
2022-09-18T23:06:25.389Z,10.50
2022-09-18T23:08:53.877Z,10.40
2022-09-18T23:11:27.927Z,10.50
2022-09-18T23:13:58.253Z,10.50
2022-09-18T23:16:28.732Z,10.50
2022-09-18T23:18:58.861Z,10.50
2022-09-18T23:21:28.733Z,10.50
2022-09-18T23:23:57.423Z,10.40
2022-09-18T23:26:28.701Z,10.40
2022-09-18T23:28:58.960Z,10.50
2022-09-18T23:31:28.415Z,10.40
2022-09-18T23:33:58.843Z,10.40
2022-09-18T23:36:28.868Z,10.30
2022-09-18T23:38:58.643Z,10.30
2022-09-18T23:41:29.878Z,10.40
2022-09-18T23:43:58.105Z,10.30
2022-09-18T23:46:25.912Z,10.30
2022-09-18T23:48:55.663Z,10.30
2022-09-18T23:51:24.389Z,10.30
2022-09-18T23:53:52.636Z,10.30
2022-09-18T23:56:20.508Z,9.90
2022-09-18T23:58:55.048Z,10.00
